Airfield :







YOU CAN JOIN US ON...

 
LOGIN :

Register | Disclaimer

   EN    FR    IT 

 









Legend :    VFR   Marginal VFR   IFR   Intensive IFR   Very Intensive IFR
Visi :
Ceiling :
>= 8 km
>= 3000ft
5 to 8 km
1000 to 3000 ft
1500m to 5 km
500 to 1000 ft
800 to 1500m
200 to 500 ft
< 800m
< 200 ft
Symbols :   Thunderstorms  Fog  Heavy snow  Heavy precipitations  Wind > 20 kt







- Airport Elevation : 342 ft


KCON - Concord Municipal

CURRENT METAR :
  • 222051Z AUTO 23008KT 10SM CLR 29/15 A2998 RMK AO2 SLP149 T02890150 56023

EXPIRED METARs :
  • 221951Z AUTO 22007KT 10SM CLR 29/14 A2999 RMK AO2 SLP153 T02890144
  • 221851Z AUTO 26006KT 10SM CLR 30/13 A3002 RMK AO2 SLP165 T03000133

TAF KCON
Valid from the 22 at 18:00 until the 23 at 18:00 UTC


221725Z 2218/2318 VRB05KT P6SM SKC
FM231000 18005KT 5SM BR FEW250
FM231200 22006KT P6SM BKN250
No reported NOTAMs for that airfield.



MET'MAP, your aeronautical weather chart ! - Copyright ORBIFLY December 2007 - Disclaimer

ORBIFLY MET'MAP TEAM :

Programming & Development : Alexandra Zaïnal
Concept & Development : Baudouin d'Aumeries
Co-Development & Prog : Marc-Olivier Méhu
Technical & hardware support : Manuel Goepfert

Contact : metmap@orbifly.com




SOURCES & CREDITS :

   NOAA